Time;durP1;ratioP1;P1;durP2;ratioP2;P2;SDS_P1;SDS_P2;PMS_P1;PMS_P2;Temp;Humidity;BMP_temperature;BMP_pressure;BME280_temperature;BME280_humidity;BME280_pressure;Samples;Min_cycle;Max_cycle;Signal;HPM_P1;HPM_P2
2022/09/16 00:02:29;;;;;;;;;;;;;;;14.98;100.00;95688.53;10371637;28;97162;-61
2022/09/16 00:07:32;;;;;;;;;;;;;;;14.98;100.00;95686.72;10372274;28;98063;-61
2022/09/16 00:12:36;;;;;;;;;;;;;;;15.00;100.00;95687.34;10372575;28;96742;-61
2022/09/16 00:17:38;;;;;;;;;;;;;;;15.01;100.00;95694.25;10373049;28;96872;-61
2022/09/16 00:22:41;;;;;;;;;;;;;;;15.04;100.00;95688.56;10376011;28;96921;-62
2022/09/16 00:27:47;;;;;;;;;;;;;;;15.08;100.00;95683.78;10413897;27;96793;-62
2022/09/16 00:32:49;;;;;;;;;;;;;;;15.05;100.00;95684.94;10374549;27;96837;-61
2022/09/16 00:37:52;;;;;;;;;;;;;;;15.10;100.00;95677.31;10389763;28;97361;-61
2022/09/16 00:42:56;;;;;;;;;;;;;;;15.06;100.00;95676.06;10337452;28;96958;-61
2022/09/16 00:48:00;;;;;;;;;;;;;;;15.10;100.00;95669.41;10337961;28;97332;-62
2022/09/16 00:53:02;;;;;;;;;;;;;;;15.07;100.00;95672.41;10336836;28;96978;-61
2022/09/16 00:58:11;;;;;;;;;;;;;;;15.07;100.00;95658.47;10337389;28;97232;-61
2022/09/16 01:03:14;;;;;;;;;;;;;;;15.02;100.00;95660.84;10378755;28;97256;-61
2022/09/16 01:08:17;;;;;;;;;;;;;;;15.05;100.00;95663.09;10365309;28;97426;-61
2022/09/16 01:13:21;;;;;;;;;;;;;;;15.11;100.00;95667.59;10378789;28;96855;-61
2022/09/16 01:18:26;;;;;;;;;;;;;;;15.11;100.00;95668.44;10378333;28;96783;-61
2022/09/16 01:23:47;;;;;;;;;;;;;;;15.08;100.00;95668.00;10378077;28;96826;-61
2022/09/16 01:29:07;;;;;;;;;;;;;;;15.04;100.00;95664.91;10369971;28;96949;-61
2022/09/16 01:34:15;;;;;;;;;;;;;;;15.06;100.00;95659.44;10337072;28;96870;-61
2022/09/16 01:39:22;;;;;;;;;;;;;;;15.10;100.00;95656.25;10376090;28;97213;-61
2022/09/16 01:44:27;;;;;;;;;;;;;;;15.10;100.00;95650.19;10335214;28;96768;-61
2022/09/16 01:49:37;;;;;;;;;;;;;;;15.02;100.00;95648.50;10336063;28;96788;-61
2022/09/16 01:54:42;;;;;;;;;;;;;;;14.97;100.00;95650.88;10335231;28;96948;-61
2022/09/16 01:59:49;;;;;;;;;;;;;;;14.92;100.00;95643.59;10334813;28;97459;-61
2022/09/16 02:04:54;;;;;;;;;;;;;;;14.93;100.00;95647.00;10335002;28;97391;-61
2022/09/16 02:10:03;;;;;;;;;;;;;;;14.94;100.00;95640.75;10349741;28;97203;-61
2022/09/16 02:15:08;;;;;;;;;;;;;;;14.94;100.00;95646.03;10376083;28;97003;-61
2022/09/16 02:20:14;;;;;;;;;;;;;;;14.81;100.00;95653.78;10366806;28;96820;-61
2022/09/16 02:25:18;;;;;;;;;;;;;;;14.70;100.00;95644.59;10334634;28;96869;-62
2022/09/16 02:30:22;;;;;;;;;;;;;;;14.62;100.00;95648.16;10334526;28;97281;-62
2022/09/16 02:35:27;;;;;;;;;;;;;;;14.58;100.00;95635.59;10332849;28;96803;-61
2022/09/16 02:40:32;;;;;;;;;;;;;;;14.52;100.00;95637.97;10334400;28;96735;-61
2022/09/16 02:45:40;;;;;;;;;;;;;;;14.50;100.00;95639.94;10354010;28;97627;-61
2022/09/16 02:50:48;;;;;;;;;;;;;;;14.44;100.00;95629.38;10374045;28;96761;-62
2022/09/16 02:55:54;;;;;;;;;;;;;;;14.42;100.00;95620.84;10374839;28;96879;-60
2022/09/16 03:00:57;;;;;;;;;;;;;;;14.33;100.00;95622.78;10380658;28;96923;-61
2022/09/16 03:06:15;;;;;;;;;;;;;;;14.34;100.00;95614.72;10376809;28;97024;-61
2022/09/16 03:11:29;;;;;;;;;;;;;;;14.36;100.00;95607.44;10373787;28;97117;-61
2022/09/16 03:16:36;;;;;;;;;;;;;;;14.28;100.00;95610.19;10374317;28;96749;-61
2022/09/16 03:21:43;;;;;;;;;;;;;;;14.22;100.00;95600.41;10357272;28;96913;-61
2022/09/16 03:26:50;;;;;;;;;;;;;;;14.08;100.00;95594.19;10373133;28;96724;-61
2022/09/16 03:31:56;;;;;;;;;;;;;;;13.97;100.00;95589.44;10390910;28;97147;-61
2022/09/16 03:37:00;;;;;;;;;;;;;;;13.82;100.00;95600.75;10377722;28;96926;-61
2022/09/16 03:42:06;;;;;;;;;;;;;;;13.69;100.00;95599.78;10373854;28;97127;-61
2022/09/16 03:47:09;;;;;;;;;;;;;;;13.67;100.00;95602.59;10376035;28;96891;-61
2022/09/16 03:52:12;;;;;;;;;;;;;;;13.69;100.00;95589.28;10372475;28;97178;-61
2022/09/16 03:57:16;;;;;;;;;;;;;;;13.70;100.00;95591.72;10373636;28;96751;-61
2022/09/16 04:02:18;;;;;;;;;;;;;;;13.72;100.00;95605.47;10373611;28;97684;-61
2022/09/16 04:07:21;;;;;;;;;;;;;;;13.65;100.00;95603.78;10372564;28;97176;-61
2022/09/16 04:12:25;;;;;;;;;;;;;;;13.65;100.00;95599.34;10372865;28;97265;-61
2022/09/16 04:17:27;;;;;;;;;;;;;;;13.63;100.00;95582.97;10379118;28;96748;-61
2022/09/16 04:22:30;;;;;;;;;;;;;;;13.57;100.00;95587.16;10346808;28;96696;-61
2022/09/16 04:27:34;;;;;;;;;;;;;;;13.50;100.00;95581.00;10339028;28;97062;-60
2022/09/16 04:32:37;;;;;;;;;;;;;;;13.39;100.00;95587.53;10339146;28;96799;-61
2022/09/16 04:37:39;;;;;;;;;;;;;;;13.30;100.00;95595.66;10339176;28;97203;-60
2022/09/16 04:42:47;;;;;;;;;;;;;;;13.17;100.00;95601.50;10339142;28;96991;-61
2022/09/16 04:47:55;;;;;;;;;;;;;;;13.12;100.00;95606.50;10338871;28;96664;-60
2022/09/16 04:52:57;;;;;;;;;;;;;;;13.04;100.00;95602.94;10375321;28;97054;-61
2022/09/16 04:58:01;;;;;;;;;;;;;;;12.99;100.00;95602.66;10379311;28;96786;-60
2022/09/16 05:03:04;;;;;;;;;;;;;;;12.94;100.00;95609.44;10379114;28;96813;-61
2022/09/16 05:08:07;;;;;;;;;;;;;;;12.85;100.00;95612.09;10378404;28;97081;-60
2022/09/16 05:13:10;;;;;;;;;;;;;;;12.79;100.00;95614.63;10379251;28;96656;-61
2022/09/16 05:18:13;;;;;;;;;;;;;;;12.80;100.00;95611.81;10378729;28;96665;-61
2022/09/16 05:23:16;;;;;;;;;;;;;;;12.87;100.00;95628.47;10338029;28;96805;-61
2022/09/16 05:28:20;;;;;;;;;;;;;;;12.88;100.00;95624.84;10395051;28;96915;-61
2022/09/16 05:33:22;;;;;;;;;;;;;;;12.85;100.00;95629.63;10392450;28;97684;-61
2022/09/16 05:38:25;;;;;;;;;;;;;;;12.73;100.00;95631.84;10378540;28;96733;-60
2022/09/16 05:43:29;;;;;;;;;;;;;;;12.65;100.00;95635.34;10379520;28;96861;-61
2022/09/16 05:48:32;;;;;;;;;;;;;;;12.64;100.00;95627.66;10377095;28;96827;-61
2022/09/16 05:53:35;;;;;;;;;;;;;;;12.65;100.00;95635.34;10378049;28;96820;-61
2022/09/16 05:58:39;;;;;;;;;;;;;;;12.68;100.00;95640.25;10408557;27;96744;-60
2022/09/16 06:03:42;;;;;;;;;;;;;;;12.75;100.00;95650.84;10387280;28;96797;-60
2022/09/16 06:08:45;;;;;;;;;;;;;;;12.81;100.00;95655.38;10377624;28;96726;-61
2022/09/16 06:13:52;;;;;;;;;;;;;;;12.85;100.00;95648.78;10398008;28;96814;-61
2022/09/16 06:18:56;;;;;;;;;;;;;;;12.96;100.00;95657.25;10407233;28;97023;-60
2022/09/16 06:23:59;;;;;;;;;;;;;;;13.00;100.00;95656.75;10384277;28;98159;-61
2022/09/16 06:29:03;;;;;;;;;;;;;;;13.03;100.00;95653.75;10378394;28;98022;-60
2022/09/16 06:34:06;;;;;;;;;;;;;;;13.10;100.00;95648.63;10417097;28;96829;-61
2022/09/16 06:39:11;;;;;;;;;;;;;;;13.22;100.00;95654.25;10416105;27;97301;-61
2022/09/16 06:44:15;;;;;;;;;;;;;;;13.40;100.00;95649.47;10417494;27;96813;-61
2022/09/16 06:49:17;;;;;;;;;;;;;;;13.50;100.00;95646.59;10407769;27;96815;-61
2022/09/16 06:54:20;;;;;;;;;;;;;;;13.62;100.00;95647.78;10396913;28;96819;-61
2022/09/16 06:59:24;;;;;;;;;;;;;;;13.75;100.00;95652.38;10394493;27;96823;-61
2022/09/16 07:04:26;;;;;;;;;;;;;;;13.86;100.00;95648.47;10392403;28;96784;-61
2022/09/16 07:09:29;;;;;;;;;;;;;;;14.00;100.00;95657.31;10390465;28;96789;-61
2022/09/16 07:14:33;;;;;;;;;;;;;;;14.15;100.00;95663.38;10394656;28;97336;-61
2022/09/16 07:19:36;;;;;;;;;;;;;;;14.26;100.00;95661.28;10396038;28;97303;-60
2022/09/16 07:24:39;;;;;;;;;;;;;;;14.30;100.00;95655.47;10394605;28;97431;-61
2022/09/16 07:29:43;;;;;;;;;;;;;;;14.37;100.00;95671.34;10405286;27;98017;-61
2022/09/16 07:34:46;;;;;;;;;;;;;;;14.36;100.00;95665.25;10398861;27;96996;-61
2022/09/16 07:39:49;;;;;;;;;;;;;;;14.37;100.00;95672.16;10415088;27;96840;-60
2022/09/16 07:44:53;;;;;;;;;;;;;;;14.43;100.00;95667.97;10390529;28;97216;-61
2022/09/16 07:49:55;;;;;;;;;;;;;;;14.50;100.00;95676.72;10391104;28;96862;-61
2022/09/16 07:54:58;;;;;;;;;;;;;;;14.61;100.00;95680.72;10400724;28;97192;-60
2022/09/16 08:00:02;;;;;;;;;;;;;;;14.67;100.00;95682.56;10397187;28;96881;-62
2022/09/16 08:05:05;;;;;;;;;;;;;;;14.68;100.00;95681.59;10415887;28;96646;-61
2022/09/16 08:10:08;;;;;;;;;;;;;;;14.81;100.00;95677.47;10399366;28;96689;-64
2022/09/16 08:15:12;;;;;;;;;;;;;;;14.92;100.00;95697.97;10374764;28;96622;-60
2022/09/16 08:20:15;;;;;;;;;;;;;;;14.98;100.00;95689.34;10348440;28;97215;-61
2022/09/16 08:25:18;;;;;;;;;;;;;;;15.13;100.00;95691.91;10332064;28;96768;-60
2022/09/16 08:30:22;;;;;;;;;;;;;;;15.34;100.00;95708.66;10331546;28;96820;-61
2022/09/16 08:35:25;;;;;;;;;;;;;;;15.54;100.00;95709.63;10332073;28;96934;-61
2022/09/16 08:40:31;;;;;;;;;;;;;;;15.80;100.00;95709.03;10331871;28;96867;-61
2022/09/16 08:45:39;;;;;;;;;;;;;;;15.92;100.00;95716.41;10332043;28;96683;-61
2022/09/16 08:50:45;;;;;;;;;;;;;;;15.94;100.00;95714.38;10359900;28;96989;-63
2022/09/16 08:55:49;;;;;;;;;;;;;;;16.04;100.00;95709.56;10372728;28;97019;-61
2022/09/16 09:00:56;;;;;;;;;;;;;;;16.20;100.00;95711.06;10376096;28;96849;-61
2022/09/16 09:05:59;;;;;;;;;;;;;;;16.37;100.00;95698.38;10380903;28;96650;-61
2022/09/16 09:11:08;;;;;;;;;;;;;;;16.54;100.00;95704.91;10378563;28;96895;-61
2022/09/16 09:16:17;;;;;;;;;;;;;;;16.87;100.00;95709.50;10379192;28;96639;-61
2022/09/16 09:21:23;;;;;;;;;;;;;;;17.28;100.00;95708.50;10344072;28;97196;-61
2022/09/16 09:26:32;;;;;;;;;;;;;;;17.74;100.00;95710.31;10337915;28;98866;-61
2022/09/16 09:31:43;;;;;;;;;;;;;;;17.90;100.00;95703.00;10337817;28;96759;-62
2022/09/16 09:36:52;;;;;;;;;;;;;;;17.72;100.00;95709.72;10336924;28;96819;-61
2022/09/16 09:41:57;;;;;;;;;;;;;;;17.31;100.00;95705.47;10337943;28;96710;-61
2022/09/16 09:47:03;;;;;;;;;;;;;;;17.10;100.00;95708.31;10337319;28;97329;-61
2022/09/16 09:52:07;;;;;;;;;;;;;;;17.10;100.00;95705.66;10336350;28;96886;-61
2022/09/16 09:57:12;;;;;;;;;;;;;;;17.28;100.00;95705.06;10337668;28;96682;-61
2022/09/16 10:02:18;;;;;;;;;;;;;;;17.60;100.00;95703.44;10336914;28;96816;-61
2022/09/16 10:07:22;;;;;;;;;;;;;;;17.84;100.00;95704.66;10336539;28;96826;-61
2022/09/16 10:12:29;;;;;;;;;;;;;;;17.99;100.00;95712.34;10368916;28;96863;-61
2022/09/16 10:17:33;;;;;;;;;;;;;;;17.75;100.00;95695.28;10377890;28;97024;-61
2022/09/16 10:22:36;;;;;;;;;;;;;;;17.71;100.00;95694.88;10352364;28;98706;-61
2022/09/16 10:27:38;;;;;;;;;;;;;;;17.83;100.00;95694.25;10335660;28;96848;-61
2022/09/16 10:32:51;;;;;;;;;;;;;;;17.64;100.00;95675.59;10337503;28;96884;-61
2022/09/16 10:37:55;;;;;;;;;;;;;;;17.71;100.00;95681.66;10348307;28;97215;-60
2022/09/16 10:43:01;;;;;;;;;;;;;;;17.85;100.00;95657.91;10374211;28;97156;-60
2022/09/16 10:48:07;;;;;;;;;;;;;;;18.09;100.00;95667.78;10377051;28;96689;-61
2022/09/16 10:53:21;;;;;;;;;;;;;;;18.59;100.00;95658.44;10376141;28;96746;-61
2022/09/16 10:58:24;;;;;;;;;;;;;;;19.04;100.00;95661.00;10376497;28;96764;-60
2022/09/16 11:04:00;;;;;;;;;;;;;;;19.15;100.00;95639.13;10374655;28;96808;-62
2022/09/16 11:09:11;;;;;;;;;;;;;;;18.93;100.00;95619.34;10370790;28;97203;-60
2022/09/16 11:14:17;;;;;;;;;;;;;;;18.93;100.00;95624.63;10374937;28;96923;-60
2022/09/16 11:19:25;;;;;;;;;;;;;;;19.12;100.00;95622.88;10374793;28;96898;-60
2022/09/16 11:24:45;;;;;;;;;;;;;;;19.31;100.00;95634.31;10375043;28;96758;-60
2022/09/16 11:30:15;;;;;;;;;;;;;;;19.12;100.00;95641.38;10374893;28;96814;-60
2022/09/16 11:35:28;;;;;;;;;;;;;;;18.48;100.00;95644.84;10328553;28;97387;-60
2022/09/16 11:40:34;;;;;;;;;;;;;;;17.73;100.00;95644.47;10308090;28;96900;-60
2022/09/16 11:45:42;;;;;;;;;;;;;;;17.16;100.00;95644.16;10288155;28;96815;-60
2022/09/16 11:50:51;;;;;;;;;;;;;;;17.06;100.00;95643.72;10287483;28;96894;-61
2022/09/16 11:55:56;;;;;;;;;;;;;;;17.09;100.00;95630.16;10286977;28;97901;-61
2022/09/16 12:01:03;;;;;;;;;;;;;;;17.24;100.00;95630.75;10286910;28;97930;-60
2022/09/16 12:06:10;;;;;;;;;;;;;;;17.52;100.00;95617.28;10287833;28;96844;-60
2022/09/16 12:11:17;;;;;;;;;;;;;;;17.61;100.00;95631.09;10348995;28;96831;-60
2022/09/16 12:16:23;;;;;;;;;;;;;;;17.85;100.00;95626.19;10373607;28;96924;-60
2022/09/16 12:21:34;;;;;;;;;;;;;;;17.94;100.00;95619.66;10332639;28;97068;-60
2022/09/16 12:26:38;;;;;;;;;;;;;;;18.02;100.00;95621.25;10332321;28;96742;-60
2022/09/16 12:31:43;;;;;;;;;;;;;;;18.07;100.00;95639.94;10332999;28;97366;-60
2022/09/16 12:36:50;;;;;;;;;;;;;;;17.96;100.00;95649.34;10336923;28;96689;-60
2022/09/16 12:42:08;;;;;;;;;;;;;;;18.10;100.00;95635.06;10371295;28;96755;-60
2022/09/16 12:47:19;;;;;;;;;;;;;;;17.94;100.00;95646.06;10379712;28;96641;-60
2022/09/16 12:52:39;;;;;;;;;;;;;;;17.41;100.00;95614.50;10379851;28;96786;-60
2022/09/16 12:57:47;;;;;;;;;;;;;;;17.52;100.00;95616.50;10380079;28;96887;-60
2022/09/16 13:02:52;;;;;;;;;;;;;;;18.03;100.00;95612.28;10379758;28;96825;-60
2022/09/16 13:07:57;;;;;;;;;;;;;;;18.31;100.00;95604.06;10377970;28;97794;-60
2022/09/16 13:13:01;;;;;;;;;;;;;;;18.25;100.00;95599.59;10377690;28;97533;-60
2022/09/16 13:18:20;;;;;;;;;;;;;;;18.08;100.00;95597.44;10378627;28;96764;-60
2022/09/16 13:23:31;;;;;;;;;;;;;;;18.15;100.00;95599.25;10380045;28;96741;-60
2022/09/16 13:28:37;;;;;;;;;;;;;;;18.15;100.00;95609.81;10378794;28;97774;-60
2022/09/16 13:33:40;;;;;;;;;;;;;;;18.05;100.00;95595.22;10378920;28;97862;-60
2022/09/16 13:38:48;;;;;;;;;;;;;;;17.90;100.00;95621.09;10369640;28;96751;-60
2022/09/16 13:43:52;;;;;;;;;;;;;;;17.74;100.00;95591.44;10337331;28;96832;-60
2022/09/16 13:48:56;;;;;;;;;;;;;;;17.88;100.00;95588.78;10336724;28;96977;-60
2022/09/16 13:54:03;;;;;;;;;;;;;;;17.91;100.00;95599.75;10336933;28;97832;-60
2022/09/16 13:59:15;;;;;;;;;;;;;;;17.97;100.00;95582.25;10336591;28;96822;-60
2022/09/16 14:04:22;;;;;;;;;;;;;;;17.96;100.00;95582.44;10336833;28;96823;-60
2022/09/16 14:09:35;;;;;;;;;;;;;;;17.84;100.00;95600.78;10351762;28;96891;-60
2022/09/16 14:14:38;;;;;;;;;;;;;;;17.85;100.00;95583.91;10378014;28;97216;-60
2022/09/16 14:19:52;;;;;;;;;;;;;;;17.67;100.00;95582.72;10377892;28;96622;-60
2022/09/16 14:24:56;;;;;;;;;;;;;;;17.43;100.00;95581.56;10377338;28;96798;-60
2022/09/16 14:30:16;;;;;;;;;;;;;;;17.45;100.00;95568.97;10376210;28;96703;-60
2022/09/16 14:35:21;;;;;;;;;;;;;;;17.56;100.00;95572.78;10377136;28;96766;-60
2022/09/16 14:40:26;;;;;;;;;;;;;;;17.40;100.00;95567.97;10351985;28;97008;-60
2022/09/16 14:45:30;;;;;;;;;;;;;;;17.54;100.00;95551.06;10335522;28;96793;-60
2022/09/16 14:50:36;;;;;;;;;;;;;;;17.76;100.00;95543.69;10335280;28;96639;-60
2022/09/16 14:55:48;;;;;;;;;;;;;;;18.07;100.00;95561.47;10334848;28;97499;-60
2022/09/16 15:00:53;;;;;;;;;;;;;;;18.67;100.00;95571.69;10334231;28;96758;-60
2022/09/16 15:05:57;;;;;;;;;;;;;;;19.28;100.00;95576.47;10335548;28;96971;-61
2022/09/16 15:11:03;;;;;;;;;;;;;;;19.74;100.00;95596.41;10364435;28;97013;-60
2022/09/16 15:16:10;;;;;;;;;;;;;;;19.80;100.00;95587.53;10375407;28;96985;-60
2022/09/16 15:21:20;;;;;;;;;;;;;;;19.55;100.00;95582.34;10374218;28;96720;-60
2022/09/16 15:26:26;;;;;;;;;;;;;;;19.14;100.00;95570.50;10375201;28;97267;-61
2022/09/16 15:31:33;;;;;;;;;;;;;;;19.00;100.00;95580.41;10375022;28;96705;-60
2022/09/16 15:36:37;;;;;;;;;;;;;;;19.27;100.00;95580.19;10375291;28;96700;-60
2022/09/16 15:41:41;;;;;;;;;;;;;;;19.56;100.00;95584.75;10337482;28;96773;-60
2022/09/16 15:46:45;;;;;;;;;;;;;;;19.30;100.00;95572.59;10333792;28;96830;-61
2022/09/16 15:51:50;;;;;;;;;;;;;;;18.76;100.00;95580.16;10333459;28;96734;-60
2022/09/16 15:57:00;;;;;;;;;;;;;;;18.99;100.00;95590.19;10333120;28;96648;-60
2022/09/16 16:02:06;;;;;;;;;;;;;;;19.05;100.00;95581.38;10333347;28;96776;-60
2022/09/16 16:07:09;;;;;;;;;;;;;;;19.37;100.00;95575.19;10333490;28;96828;-61
2022/09/16 16:12:15;;;;;;;;;;;;;;;19.37;100.00;95569.91;10378001;28;96723;-60
2022/09/16 16:17:18;;;;;;;;;;;;;;;19.08;100.00;95577.47;10371723;28;96759;-60
2022/09/16 16:22:21;;;;;;;;;;;;;;;18.84;100.00;95598.41;10389868;28;96809;-62
2022/09/16 16:27:25;;;;;;;;;;;;;;;18.64;100.00;95600.41;10358999;28;98643;-61
2022/09/16 16:32:29;;;;;;;;;;;;;;;18.39;100.00;95600.34;10365719;28;96838;-61
2022/09/16 16:37:32;;;;;;;;;;;;;;;17.91;100.00;95598.94;10385325;28;96977;-60
2022/09/16 16:42:49;;;;;;;;;;;;;;;17.85;100.00;95607.69;10403654;28;98418;-60
2022/09/16 16:47:52;;;;;;;;;;;;;;;17.76;100.00;95618.47;10409221;27;96945;-60
2022/09/16 16:52:54;;;;;;;;;;;;;;;17.60;100.00;95612.84;10364516;28;96982;-60
2022/09/16 16:57:58;;;;;;;;;;;;;;;17.18;100.00;95613.91;10404041;28;97363;-61
2022/09/16 17:03:01;;;;;;;;;;;;;;;16.76;100.00;95608.03;10386182;28;97318;-60
2022/09/16 17:08:03;;;;;;;;;;;;;;;16.71;100.00;95606.97;10376560;28;96792;-60
2022/09/16 17:13:07;;;;;;;;;;;;;;;16.42;100.00;95603.69;10350562;28;97241;-60
2022/09/16 17:18:10;;;;;;;;;;;;;;;16.32;100.00;95606.69;10343934;28;96894;-60
2022/09/16 17:23:12;;;;;;;;;;;;;;;16.27;100.00;95608.31;10360655;28;97016;-60
2022/09/16 17:28:17;;;;;;;;;;;;;;;16.27;100.00;95609.13;10367019;28;96742;-60
2022/09/16 17:33:20;;;;;;;;;;;;;;;16.07;100.00;95614.34;10376077;28;97105;-60
2022/09/16 17:38:22;;;;;;;;;;;;;;;15.83;100.00;95613.81;10369506;28;97341;-60
2022/09/16 17:43:26;;;;;;;;;;;;;;;15.74;100.00;95604.47;10369917;28;97450;-60
2022/09/16 17:48:35;;;;;;;;;;;;;;;15.61;100.00;95605.19;10364082;28;98148;-62
2022/09/16 17:53:38;;;;;;;;;;;;;;;15.46;100.00;95613.22;10358210;28;96820;-60
2022/09/16 17:58:43;;;;;;;;;;;;;;;15.35;100.00;95619.00;10336149;28;96720;-59
2022/09/16 18:03:47;;;;;;;;;;;;;;;15.31;100.00;95617.75;10345240;28;96814;-60
2022/09/16 18:08:50;;;;;;;;;;;;;;;15.26;100.00;95626.22;10354186;28;96905;-60
2022/09/16 18:13:55;;;;;;;;;;;;;;;15.23;100.00;95628.44;10363856;28;96754;-59
2022/09/16 18:18:58;;;;;;;;;;;;;;;15.22;100.00;95621.56;10388370;28;97095;-60
2022/09/16 18:24:02;;;;;;;;;;;;;;;15.13;100.00;95619.06;10335541;28;97139;-60
2022/09/16 18:29:06;;;;;;;;;;;;;;;15.07;100.00;95635.59;10389213;28;96776;-61
2022/09/16 18:34:13;;;;;;;;;;;;;;;15.18;100.00;95630.81;10370927;27;97116;-60
2022/09/16 18:39:17;;;;;;;;;;;;;;;15.08;100.00;95626.72;10373674;28;97921;-60
2022/09/16 18:44:22;;;;;;;;;;;;;;;15.06;100.00;95630.53;10368237;28;96811;-60
2022/09/16 18:49:27;;;;;;;;;;;;;;;14.91;100.00;95630.63;10332206;28;97236;-60
2022/09/16 18:54:31;;;;;;;;;;;;;;;14.89;100.00;95636.06;10372687;28;96721;-60
2022/09/16 18:59:35;;;;;;;;;;;;;;;14.80;100.00;95644.25;10395223;28;97191;-61
2022/09/16 19:04:40;;;;;;;;;;;;;;;14.56;100.00;95659.41;10392649;28;98613;-60
2022/09/16 19:09:44;;;;;;;;;;;;;;;14.47;100.00;95650.00;10365152;28;97019;-60
2022/09/16 19:14:48;;;;;;;;;;;;;;;14.49;100.00;95664.59;10346219;28;96926;-61
2022/09/16 19:19:51;;;;;;;;;;;;;;;14.54;100.00;95664.03;10352657;28;98927;-60
2022/09/16 19:24:53;;;;;;;;;;;;;;;14.60;100.00;95668.56;10361295;28;97484;-60
2022/09/16 19:29:57;;;;;;;;;;;;;;;14.52;100.00;95653.72;10372003;28;96974;-60
2022/09/16 19:35:00;;;;;;;;;;;;;;;14.43;100.00;95659.28;10361107;28;97049;-60
2022/09/16 19:40:02;;;;;;;;;;;;;;;14.35;100.00;95658.41;10374843;28;96782;-59
2022/09/16 19:45:07;;;;;;;;;;;;;;;14.32;100.00;95652.69;10363337;28;99226;-60
2022/09/16 19:50:10;;;;;;;;;;;;;;;14.30;100.00;95658.09;10379899;28;96757;-60
2022/09/16 19:55:13;;;;;;;;;;;;;;;14.39;100.00;95668.53;10393071;28;96907;-60
2022/09/16 20:00:17;;;;;;;;;;;;;;;14.39;100.00;95664.09;10389296;28;97671;-60
2022/09/16 20:05:19;;;;;;;;;;;;;;;14.45;100.00;95668.59;10377746;28;97293;-60
2022/09/16 20:10:22;;;;;;;;;;;;;;;14.33;100.00;95667.44;10392309;28;96953;-60
2022/09/16 20:15:26;;;;;;;;;;;;;;;14.21;100.00;95682.88;10392291;28;96950;-60
2022/09/16 20:20:29;;;;;;;;;;;;;;;14.11;100.00;95685.75;10386202;28;96667;-60
2022/09/16 20:25:32;;;;;;;;;;;;;;;14.03;100.00;95700.81;10354195;28;96815;-60
2022/09/16 20:30:36;;;;;;;;;;;;;;;14.00;100.00;95707.22;10331026;28;97161;-60
2022/09/16 20:35:38;;;;;;;;;;;;;;;14.11;100.00;95708.59;10331471;28;96967;-60
2022/09/16 20:40:43;;;;;;;;;;;;;;;14.03;100.00;95706.06;10331537;28;97217;-59
2022/09/16 20:45:47;;;;;;;;;;;;;;;13.89;100.00;95710.31;10338100;28;97216;-59
2022/09/16 20:50:50;;;;;;;;;;;;;;;13.86;100.00;95711.47;10372145;28;96704;-60
2022/09/16 20:55:53;;;;;;;;;;;;;;;13.80;100.00;95722.72;10387608;27;96762;-59
2022/09/16 21:01:02;;;;;;;;;;;;;;;13.83;100.00;95727.63;10399515;28;96883;-60
2022/09/16 21:06:05;;;;;;;;;;;;;;;13.84;100.00;95726.59;10398949;28;96996;-59
2022/09/16 21:11:10;;;;;;;;;;;;;;;13.76;100.00;95721.47;10397840;28;97165;-61
2022/09/16 21:16:15;;;;;;;;;;;;;;;13.67;100.00;95725.16;10390333;28;96728;-60
2022/09/16 21:21:19;;;;;;;;;;;;;;;13.73;100.00;95729.69;10392103;28;96832;-59
2022/09/16 21:26:22;;;;;;;;;;;;;;;13.78;100.00;95745.72;10373261;28;97129;-59
2022/09/16 21:31:27;;;;;;;;;;;;;;;13.77;100.00;95755.38;10382645;28;97119;-60
2022/09/16 21:36:30;;;;;;;;;;;;;;;13.65;100.00;95751.56;10419171;27;97082;-59
2022/09/16 21:41:33;;;;;;;;;;;;;;;13.63;100.00;95750.94;10419321;28;96730;-60
2022/09/16 21:46:39;;;;;;;;;;;;;;;13.52;100.00;95752.19;10399601;27;98681;-60
2022/09/16 21:51:42;;;;;;;;;;;;;;;13.41;100.00;95749.97;10366640;28;96805;-61
2022/09/16 21:56:45;;;;;;;;;;;;;;;13.10;100.00;95782.38;10367979;28;97093;-59
2022/09/16 22:01:50;;;;;;;;;;;;;;;13.00;100.00;95790.47;10379516;28;96798;-59
2022/09/16 22:06:54;;;;;;;;;;;;;;;12.91;100.00;95772.31;10381645;28;96907;-59
2022/09/16 22:11:57;;;;;;;;;;;;;;;12.86;100.00;95786.75;10388558;28;96699;-59
2022/09/16 22:17:01;;;;;;;;;;;;;;;12.80;100.00;95784.78;10386696;28;97444;-60
2022/09/16 22:22:04;;;;;;;;;;;;;;;12.67;100.00;95784.56;10386770;28;97291;-60
2022/09/16 22:27:07;;;;;;;;;;;;;;;12.57;100.00;95794.44;10409288;28;96842;-59
2022/09/16 22:32:11;;;;;;;;;;;;;;;12.52;100.00;95799.38;10402429;28;96656;-59
2022/09/16 22:37:13;;;;;;;;;;;;;;;12.49;100.00;95813.63;10417364;28;97224;-59
2022/09/16 22:42:16;;;;;;;;;;;;;;;12.41;100.00;95817.09;10373363;28;97075;-59
2022/09/16 22:47:20;;;;;;;;;;;;;;;12.48;100.00;95828.53;10380367;28;97094;-60
2022/09/16 22:52:22;;;;;;;;;;;;;;;12.42;100.00;95826.59;10356215;28;97220;-59
2022/09/16 22:57:25;;;;;;;;;;;;;;;12.33;100.00;95832.03;10374094;28;96800;-59
2022/09/16 23:02:29;;;;;;;;;;;;;;;12.28;100.00;95829.91;10392279;28;96780;-59
2022/09/16 23:07:32;;;;;;;;;;;;;;;12.21;100.00;95826.31;10375301;28;97110;-60
2022/09/16 23:12:35;;;;;;;;;;;;;;;12.11;100.00;95832.56;10374938;28;96865;-60
2022/09/16 23:17:41;;;;;;;;;;;;;;;11.97;100.00;95814.09;10351734;28;96878;-59
2022/09/16 23:22:43;;;;;;;;;;;;;;;11.87;100.00;95814.31;10333058;28;96819;-60
2022/09/16 23:27:46;;;;;;;;;;;;;;;11.81;100.00;95814.94;10333351;28;97286;-59
2022/09/16 23:32:50;;;;;;;;;;;;;;;11.74;100.00;95820.03;10357528;28;96665;-59
2022/09/16 23:37:55;;;;;;;;;;;;;;;11.62;100.00;95827.38;10374137;28;96862;-59
2022/09/16 23:42:58;;;;;;;;;;;;;;;11.59;100.00;95832.97;10374317;28;96832;-59
2022/09/16 23:48:02;;;;;;;;;;;;;;;11.53;100.00;95839.66;10372901;28;97123;-60
2022/09/16 23:53:05;;;;;;;;;;;;;;;11.43;100.00;95843.41;10373225;28;97113;-60
2022/09/16 23:58:07;;;;;;;;;;;;;;;11.38;100.00;95856.16;10379718;28;96837;-60
